Orange, Indiana
Current Conditions -  °F | °C
As of 3:35 AM on Sunday 26 Oct 2014 (Local Time) from KI67 Reporting Station
Clear Clear  
Wind Chill: 55°   Ceiling: Unl
Heat Index: 55°   Visibility: 10mi
Dew Point: 32°   Wind: 5mph
Humidity: 41%   Direction: 320°NW
Pressure: 29.96"   Gusts: NA
Location:  39.645°N, 85.1744°W
Report Text: KI67 260735Z AUTO 32004KT 10SM CLR 13/00 A2996 RMK AO1
Loading
Personal Weather Stations






























Interactive Weather Map
Tropical Storm Tracking
New forecast layout! Learn more

10-Day Weather Forecast

Advertisements
Track Severe Weather on mobile